Página principal
METAR-TAF:

METAR-TAF

Aeroportos :

Aeroporto Internacional Tolmachevo

Novosibirsk, Rússia

latitude: 55-01N, longitude: 082-38E, altura: 111 m

Observação actual do tempo

O boletim foi feito há 46 minutos, às 04:00 UTC
Vento 6 kt de nor-noroeste
Temperatura -9°C
Humidade 85%
Pressão 1018 hPa
Visibilidade 10 km ou mais
Encobertoa uma altura de 1000 ft

METAR: UNNT 140400Z 34003MPS 9999 OVC010 M09/M11 Q1018 R25/490340 R16/490150 NOSIG RMK QFE754/1005

Hora: 11:46 (04:46 UTC)

Previsão

O boletim foi feito há 2 horas e 46 minutos, às 02:00 UTC
Previsão válida de 14 às 03 UTC a 15 às 03 UTC
Vento 6 kt de oeste com rajadas de 16 kt
Visibilidade 10 km ou mais
Nuvens fragmentadasa uma altura de 900 ft
Temporariamente
de 14 às 03 UTC a 14 às 06 UTC
Nuvens fragmentadasa uma altura de 500 ft
Tornando-se
de 14 às 06 UTC a 14 às 08 UTC
Nuvens fragmentadasa uma altura de 1100 ft

TAF: UNNT 140200Z 1403/1503 28003G08MPS 9999 BKN009 TEMPO 1403/1406 BKN005 BECMG 1406/1408 BKN011

Observações e previsões do tempo de mais de 4000 aeroportos (mensagens METAR e TAF).

As estações disponíveis são os pontos amarelos e vermelhos sobre o mapa.

Mova o rato sobre o mapa para ver o nome da estação.

Depois clique no ponto para visualizar as observações e previsões meteorológicas.

Para alterar o mapa : clique nos botões verdes com uma cruz preta para aumentar o zoom; no botão verde com uma pitada de zoom; ou nas setas verdes para mapas adjacentes.


METAR-TAF: